createdAt,value
2018-03-16T00:01:01.784Z,51.93
2018-03-16T00:03:29.291Z,42.03
2018-03-16T00:05:57.121Z,45.67
2018-03-16T00:08:25.363Z,43.07
2018-03-16T00:10:53.546Z,41.57
2018-03-16T00:13:20.992Z,41.00
2018-03-16T00:15:48.429Z,44.33
2018-03-16T00:18:15.909Z,43.20
2018-03-16T00:20:43.693Z,42.93
2018-03-16T00:23:11.241Z,47.57
2018-03-16T00:25:39.332Z,46.70
2018-03-16T00:28:06.784Z,50.80
2018-03-16T00:30:35.009Z,43.00
2018-03-16T00:33:03.100Z,48.00
2018-03-16T00:35:30.779Z,48.30
2018-03-16T00:37:59.031Z,42.53
2018-03-16T00:40:26.508Z,44.30
2018-03-16T00:42:54.013Z,43.00
2018-03-16T00:45:22.647Z,47.63
2018-03-16T00:47:51.129Z,44.40
2018-03-16T00:50:18.971Z,41.80
2018-03-16T00:52:46.452Z,41.57
2018-03-16T00:55:14.366Z,46.77
2018-03-16T00:57:41.843Z,39.27
2018-03-16T01:00:09.353Z,46.30
2018-03-16T01:02:38.444Z,51.80
2018-03-16T01:05:07.800Z,40.40
2018-03-16T01:07:35.559Z,47.37
2018-03-16T01:10:03.417Z,45.20
2018-03-16T01:12:31.334Z,46.17
2018-03-16T01:14:58.868Z,44.93
2018-03-16T01:17:26.321Z,43.37
2018-03-16T01:19:53.805Z,42.33
2018-03-16T01:22:21.264Z,49.00
2018-03-16T01:24:49.031Z,47.03
2018-03-16T01:27:17.239Z,47.50
2018-03-16T01:29:44.767Z,45.20
2018-03-16T01:32:12.604Z,49.20
2018-03-16T01:34:40.792Z,50.93
2018-03-16T01:37:08.248Z,53.57
2018-03-16T01:39:35.709Z,47.50
2018-03-16T01:42:03.426Z,49.57
2018-03-16T01:44:32.216Z,46.97
2018-03-16T01:46:59.720Z,52.77
2018-03-16T01:49:27.191Z,48.60
2018-03-16T01:51:54.647Z,50.37
2018-03-16T01:54:22.991Z,49.57
2018-03-16T01:56:50.893Z,51.80
2018-03-16T01:59:19.173Z,55.80
2018-03-16T02:01:47.436Z,52.97
2018-03-16T02:04:16.088Z,46.30
2018-03-16T02:06:43.902Z,53.83
2018-03-16T02:09:13.284Z,52.37
2018-03-16T02:11:40.989Z,48.80
2018-03-16T02:14:08.436Z,49.20
2018-03-16T02:16:36.426Z,59.23
2018-03-16T02:19:03.883Z,49.20
2018-03-16T02:21:31.353Z,57.73
2018-03-16T02:23:59.225Z,56.17
2018-03-16T02:26:26.669Z,56.10
2018-03-16T02:28:54.137Z,50.37
2018-03-16T02:31:21.612Z,54.47
2018-03-16T02:33:49.455Z,49.97
2018-03-16T02:36:17.328Z,50.40
2018-03-16T02:38:44.778Z,58.60
2018-03-16T02:41:12.297Z,53.30
2018-03-16T02:43:39.947Z,53.70
2018-03-16T02:46:08.201Z,52.70
2018-03-16T02:48:36.046Z,54.50
2018-03-16T02:51:03.509Z,59.13
2018-03-16T02:53:30.962Z,59.47
2018-03-16T02:55:58.727Z,50.67
2018-03-16T02:58:26.173Z,56.90
2018-03-16T03:00:53.637Z,57.53
2018-03-16T03:03:21.077Z,53.77
2018-03-16T03:05:48.975Z,56.90
2018-03-16T03:08:16.433Z,53.67
2018-03-16T03:10:44.185Z,59.83
2018-03-16T03:13:11.650Z,56.97
2018-03-16T03:15:39.190Z,52.67
2018-03-16T03:18:06.645Z,64.07
2018-03-16T03:20:34.147Z,56.70
2018-03-16T03:23:02.373Z,57.00
2018-03-16T03:25:30.040Z,54.17
2018-03-16T03:27:57.836Z,55.13
2018-03-16T03:30:26.099Z,64.33
2018-03-16T03:32:53.858Z,57.40
2018-03-16T03:35:21.909Z,56.97
2018-03-16T03:37:49.385Z,59.87
2018-03-16T03:40:16.976Z,57.77
2018-03-16T03:42:44.432Z,54.90
2018-03-16T03:45:12.498Z,57.50
2018-03-16T03:47:40.732Z,56.20
2018-03-16T03:50:08.214Z,60.97
2018-03-16T03:52:35.656Z,62.87
2018-03-16T03:55:03.327Z,56.93
2018-03-16T03:57:31.161Z,56.67
2018-03-16T03:59:58.920Z,57.00
2018-03-16T04:02:26.904Z,61.00
2018-03-16T04:04:54.810Z,54.63
2018-03-16T04:07:23.032Z,64.47
2018-03-16T04:09:50.859Z,62.60
2018-03-16T04:12:19.065Z,60.80
2018-03-16T04:14:46.514Z,56.87
2018-03-16T04:17:14.217Z,53.87
2018-03-16T04:19:41.650Z,59.23
2018-03-16T04:22:10.041Z,60.57
2018-03-16T04:24:37.916Z,65.20
2018-03-16T04:27:05.368Z,64.50
2018-03-16T04:29:33.585Z,64.23
2018-03-16T04:32:01.342Z,59.10
2018-03-16T04:34:29.988Z,60.70
2018-03-16T04:36:57.544Z,66.90
2018-03-16T04:39:25.073Z,63.53
2018-03-16T04:41:52.735Z,56.97
2018-03-16T04:44:20.255Z,59.43
2018-03-16T04:46:48.514Z,56.37
2018-03-16T04:49:15.958Z,62.90
2018-03-16T04:51:43.460Z,64.43
2018-03-16T04:54:10.900Z,60.27
2018-03-16T04:56:39.501Z,59.47
2018-03-16T04:59:06.944Z,64.00
2018-03-16T05:01:35.175Z,67.33
2018-03-16T05:04:03.037Z,69.50
2018-03-16T05:06:30.820Z,66.20
2018-03-16T05:08:58.279Z,66.53
2018-03-16T05:11:26.588Z,62.83
2018-03-16T05:13:54.191Z,69.33
2018-03-16T05:16:21.702Z,63.60
2018-03-16T05:18:49.924Z,60.47
2018-03-16T05:21:17.373Z,65.70
2018-03-16T05:23:44.857Z,64.40
2018-03-16T05:26:12.909Z,66.07
2018-03-16T05:28:40.435Z,62.30
2018-03-16T05:31:07.882Z,62.20
2018-03-16T05:33:35.645Z,62.07
2018-03-16T05:36:03.462Z,61.23
2018-03-16T05:38:31.340Z,59.63
2018-03-16T05:40:58.796Z,56.90
2018-03-16T05:43:26.267Z,68.57
2018-03-16T05:45:54.974Z,57.37
2018-03-16T05:48:22.448Z,70.20
2018-03-16T05:50:50.008Z,61.10
2018-03-16T05:53:17.482Z,57.80
2018-03-16T05:55:44.961Z,60.60
2018-03-16T05:58:12.444Z,60.70
2018-03-16T06:00:40.687Z,62.73
2018-03-16T06:03:08.104Z,63.83
2018-03-16T06:05:36.011Z,56.40
2018-03-16T06:08:03.452Z,57.90
2018-03-16T06:10:31.225Z,55.50
2018-03-16T06:12:58.684Z,49.97
2018-03-16T06:15:26.354Z,45.50
2018-03-16T06:17:53.843Z,40.40
2018-03-16T06:20:22.712Z,50.17
2018-03-16T06:22:50.171Z,48.37
2018-03-16T06:25:18.675Z,56.97
2018-03-16T06:27:46.122Z,55.20
2018-03-16T06:30:14.517Z,56.20
2018-03-16T06:32:42.261Z,48.63
2018-03-16T06:35:10.986Z,51.50
2018-03-16T06:37:38.425Z,41.10
2018-03-16T06:40:05.898Z,45.00
2018-03-16T06:42:35.483Z,46.47
2018-03-16T06:45:04.073Z,55.63
2018-03-16T06:47:31.357Z,57.63
2018-03-16T06:49:58.845Z,66.33
2018-03-16T06:52:26.277Z,62.97
2018-03-16T06:54:54.096Z,60.53
2018-03-16T06:57:22.014Z,62.40
2018-03-16T06:59:49.483Z,59.43
2018-03-16T07:02:16.932Z,60.03
2018-03-16T07:04:45.254Z,59.53
2018-03-16T07:07:13.548Z,59.67
2018-03-16T07:09:41.652Z,58.97
2018-03-16T07:12:09.624Z,69.73
2018-03-16T07:14:37.060Z,60.80
2018-03-16T07:17:04.503Z,59.77
2018-03-16T07:19:32.309Z,67.93
2018-03-16T07:21:59.772Z,62.40
2018-03-16T07:24:27.630Z,59.90
2018-03-16T07:26:55.074Z,59.33
2018-03-16T07:29:22.661Z,60.50
2018-03-16T07:31:51.016Z,70.93
2018-03-16T07:34:18.789Z,63.27
2018-03-16T07:36:46.641Z,62.57
2018-03-16T07:39:14.408Z,65.90
2018-03-16T07:41:41.938Z,62.50
2018-03-16T07:44:09.523Z,71.87
2018-03-16T07:46:37.038Z,71.17
2018-03-16T07:49:04.511Z,67.00
2018-03-16T07:51:31.947Z,63.97
2018-03-16T07:53:59.462Z,69.27
2018-03-16T07:56:26.946Z,66.07
2018-03-16T07:58:55.205Z,66.60
2018-03-16T08:01:22.661Z,71.23
2018-03-16T08:03:50.118Z,66.23
2018-03-16T08:06:18.789Z,69.07
2018-03-16T08:08:46.289Z,61.30
2018-03-16T08:11:14.614Z,58.43
2018-03-16T08:13:42.515Z,50.10
2018-03-16T08:16:10.728Z,53.17
2018-03-16T08:18:38.168Z,56.67
2018-03-16T08:21:05.663Z,50.03
2018-03-16T08:23:33.105Z,50.30
2018-03-16T08:26:01.003Z,53.17
2018-03-16T08:28:28.557Z,46.93
2018-03-16T08:30:56.023Z,62.60
2018-03-16T08:33:23.772Z,50.97
2018-03-16T08:35:51.441Z,44.77
2018-03-16T08:38:19.760Z,45.07
2018-03-16T08:40:47.205Z,50.70
2018-03-16T08:43:15.541Z,43.63
2018-03-16T08:45:43.000Z,50.47
2018-03-16T08:48:10.471Z,51.60
2018-03-16T08:50:37.951Z,47.23
2018-03-16T08:53:06.397Z,49.67
2018-03-16T08:55:33.958Z,55.20
2018-03-16T08:58:01.582Z,55.20
2018-03-16T09:00:29.134Z,46.47
2018-03-16T09:02:56.582Z,43.40
2018-03-16T09:05:24.724Z,52.67
2018-03-16T09:07:52.967Z,54.37
2018-03-16T09:10:20.808Z,48.10
2018-03-16T09:12:48.250Z,53.50
2018-03-16T09:15:16.526Z,43.57
2018-03-16T09:17:43.985Z,49.13
2018-03-16T09:20:11.464Z,46.67
2018-03-16T09:22:38.995Z,41.93
2018-03-16T09:25:06.809Z,47.20
2018-03-16T09:27:34.249Z,39.10
2018-03-16T09:30:02.077Z,43.50
2018-03-16T09:32:30.003Z,43.03
2018-03-16T09:34:57.797Z,37.77
2018-03-16T09:37:26.011Z,35.07
2018-03-16T09:39:53.492Z,38.60
2018-03-16T09:42:21.073Z,38.00
2018-03-16T09:44:48.585Z,39.03
2018-03-16T09:47:16.052Z,40.63
2018-03-16T09:49:43.489Z,36.97
2018-03-16T09:52:10.973Z,34.10
2018-03-16T09:54:50.231Z,40.00
2018-03-16T09:57:18.077Z,45.40
2018-03-16T09:59:45.563Z,33.10
2018-03-16T10:02:13.829Z,38.93
2018-03-16T10:04:42.449Z,28.57
2018-03-16T10:07:09.922Z,34.53
2018-03-16T10:09:37.372Z,222.33
2018-03-16T10:12:05.335Z,134.33
2018-03-16T10:14:32.900Z,37.07
2018-03-16T10:17:00.461Z,28.97
2018-03-16T10:19:28.018Z,26.33
2018-03-16T10:21:55.453Z,25.93
2018-03-16T10:24:23.284Z,27.87
2018-03-16T10:26:50.740Z,25.40
2018-03-16T10:29:18.355Z,29.20
2018-03-16T10:31:45.831Z,24.43
2018-03-16T10:34:13.944Z,26.53
2018-03-16T10:36:42.332Z,22.27
2018-03-16T10:39:10.621Z,28.23
2018-03-16T10:41:38.086Z,28.07
2018-03-16T10:44:05.566Z,25.57
2018-03-16T10:46:33.009Z,25.70
2018-03-16T10:49:00.881Z,27.40
2018-03-16T10:51:29.049Z,28.60
2018-03-16T10:53:56.560Z,25.70
2018-03-16T10:56:24.026Z,26.60
2018-03-16T10:58:51.485Z,27.23
2018-03-16T11:01:19.726Z,30.60
2018-03-16T11:03:51.265Z,29.17
2018-03-16T11:06:24.816Z,28.53
2018-03-16T11:08:53.464Z,31.53
2018-03-16T11:11:21.225Z,27.00
2018-03-16T11:13:48.780Z,32.40
2018-03-16T11:16:16.214Z,27.57
2018-03-16T11:18:43.681Z,26.23
2018-03-16T11:21:11.120Z,26.03
2018-03-16T11:23:38.674Z,28.27
2018-03-16T11:26:06.184Z,21.13
2018-03-16T11:28:33.623Z,23.83
2018-03-16T11:31:01.357Z,17.97
2018-03-16T11:33:29.265Z,24.60
2018-03-16T11:35:57.020Z,21.33
2018-03-16T11:38:24.933Z,22.43
2018-03-16T11:40:52.412Z,24.60
2018-03-16T11:43:19.879Z,26.40
2018-03-16T11:45:47.325Z,23.27
2018-03-16T11:48:14.802Z,22.77
2018-03-16T11:50:42.291Z,19.80
2018-03-16T11:53:09.741Z,17.80
2018-03-16T11:55:37.513Z,20.57
2018-03-16T11:58:04.957Z,19.13
2018-03-16T12:00:32.442Z,23.80
2018-03-16T12:03:00.664Z,20.97
2018-03-16T12:05:28.455Z,19.23
2018-03-16T12:07:55.894Z,18.30
2018-03-16T12:10:23.869Z,17.60
2018-03-16T12:12:51.324Z,17.53
2018-03-16T12:15:18.826Z,21.47
2018-03-16T12:17:46.280Z,21.33
2018-03-16T12:20:13.871Z,20.33
2018-03-16T12:22:41.323Z,19.53
2018-03-16T12:25:09.036Z,20.90
2018-03-16T12:27:36.485Z,21.03
2018-03-16T12:30:04.004Z,21.20
2018-03-16T12:32:31.453Z,19.40
2018-03-16T12:34:59.551Z,24.20
2018-03-16T12:37:27.362Z,20.70
2018-03-16T12:39:55.605Z,18.73
2018-03-16T12:42:23.064Z,195.90
2018-03-16T12:44:50.541Z,108.27
2018-03-16T12:47:18.760Z,23.20
2018-03-16T12:49:46.229Z,21.43
2018-03-16T12:52:13.670Z,18.40
2018-03-16T12:54:41.360Z,24.73
2018-03-16T12:57:08.833Z,20.80
2018-03-16T12:59:36.339Z,19.80
2018-03-16T13:02:03.772Z,20.63
2018-03-16T13:04:32.116Z,20.30
2018-03-16T13:07:00.997Z,21.17
2018-03-16T13:09:28.474Z,22.10
2018-03-16T13:11:56.341Z,17.67
2018-03-16T13:14:24.278Z,25.20
2018-03-16T13:16:51.762Z,22.20
2018-03-16T13:19:19.268Z,20.07
2018-03-16T13:21:47.469Z,22.63
2018-03-16T13:24:15.005Z,24.40
2018-03-16T13:26:42.459Z,20.83
2018-03-16T13:29:09.885Z,22.10
2018-03-16T13:31:37.412Z,21.77
2018-03-16T13:34:04.886Z,24.50
2018-03-16T13:36:33.561Z,23.10
2018-03-16T13:39:01.378Z,21.43
2018-03-16T13:41:28.836Z,22.80
2018-03-16T13:43:56.453Z,21.37
2018-03-16T13:46:24.773Z,23.43
2018-03-16T13:48:52.334Z,20.23
2018-03-16T13:51:19.901Z,21.20
2018-03-16T13:53:47.358Z,20.97
2018-03-16T13:56:14.938Z,20.40
2018-03-16T13:58:42.427Z,25.53
2018-03-16T14:01:10.750Z,22.37
2018-03-16T14:03:38.437Z,22.40
2018-03-16T14:06:06.222Z,21.60
2018-03-16T14:08:33.668Z,20.47
2018-03-16T14:11:01.337Z,21.90
2018-03-16T14:13:29.552Z,24.40
2018-03-16T14:15:57.214Z,24.60
2018-03-16T14:18:24.730Z,22.63
2018-03-16T14:20:52.187Z,24.77
2018-03-16T14:23:20.632Z,24.37
2018-03-16T14:25:48.118Z,25.63
2018-03-16T14:28:15.748Z,23.10
2018-03-16T14:30:43.316Z,24.40
2018-03-16T14:33:10.769Z,20.77
2018-03-16T14:35:38.721Z,22.60
2018-03-16T14:38:06.532Z,21.60
2018-03-16T14:40:33.997Z,23.13
2018-03-16T14:43:02.229Z,20.30
2018-03-16T14:45:29.714Z,24.27
2018-03-16T14:47:57.171Z,24.10
2018-03-16T14:50:24.682Z,23.97
2018-03-16T14:52:52.494Z,20.47
2018-03-16T14:55:19.996Z,22.30
2018-03-16T14:57:47.432Z,22.60
2018-03-16T15:00:14.935Z,22.30
2018-03-16T15:02:42.944Z,23.87
2018-03-16T15:05:11.428Z,23.33
2018-03-16T15:07:38.922Z,20.93
2018-03-16T15:10:07.069Z,23.20
2018-03-16T15:12:35.371Z,24.87
2018-03-16T15:15:03.613Z,27.60
2018-03-16T15:17:31.841Z,23.37
2018-03-16T15:19:59.317Z,22.47
2018-03-16T15:22:26.760Z,21.47
2018-03-16T15:24:54.250Z,22.87
2018-03-16T15:27:21.915Z,22.67
2018-03-16T15:29:50.400Z,22.70
2018-03-16T15:32:18.605Z,20.73
2018-03-16T15:34:46.418Z,24.37
2018-03-16T15:37:15.049Z,23.30
2018-03-16T15:39:42.551Z,25.80
2018-03-16T15:42:10.107Z,20.97
2018-03-16T15:44:37.581Z,22.53
2018-03-16T15:47:05.016Z,24.50
2018-03-16T15:49:33.388Z,23.03
2018-03-16T15:52:00.846Z,21.93
2018-03-16T15:54:28.424Z,21.50
2018-03-16T15:57:00.942Z,21.27
2018-03-16T15:59:28.661Z,22.70
2018-03-16T16:01:56.118Z,23.33
2018-03-16T16:04:24.421Z,17.47
2018-03-16T16:06:51.883Z,19.97
2018-03-16T16:09:19.412Z,20.50
2018-03-16T16:11:47.070Z,18.37
2018-03-16T16:14:14.725Z,19.63
2018-03-16T16:16:42.169Z,17.47
2018-03-16T16:19:09.702Z,15.50
2018-03-16T16:21:38.060Z,19.97
2018-03-16T16:24:05.508Z,18.73
2018-03-16T16:26:32.992Z,19.10
2018-03-16T16:29:00.604Z,18.47
2018-03-16T16:31:28.093Z,17.67
2018-03-16T16:33:55.650Z,21.20
2018-03-16T16:36:23.747Z,18.83
2018-03-16T16:38:51.638Z,21.98
2018-03-16T16:41:19.080Z,20.42
2018-03-16T16:43:46.565Z,16.50
2018-03-16T16:46:14.045Z,22.10
2018-03-16T16:48:42.805Z,17.70
2018-03-16T16:51:10.268Z,51.23
2018-03-16T16:53:37.722Z,22.40
2018-03-16T16:56:05.338Z,20.30
2018-03-16T16:58:32.783Z,19.83
2018-03-16T17:01:00.281Z,17.93
2018-03-16T17:03:27.744Z,21.57
2018-03-16T17:05:55.811Z,15.83
2018-03-16T17:08:23.253Z,14.53
2018-03-16T17:10:51.031Z,18.50
2018-03-16T17:13:18.503Z,14.20
2018-03-16T17:18:15.570Z,16.47
2018-03-16T17:20:43.081Z,17.87
2018-03-16T17:23:10.530Z,15.90
2018-03-16T17:25:38.019Z,17.60
2018-03-16T17:28:05.457Z,17.30
2018-03-16T17:30:32.965Z,21.92
2018-03-16T17:33:01.181Z,15.95
2018-03-16T17:35:29.294Z,16.85
2018-03-16T17:37:56.750Z,19.75
2018-03-16T17:40:24.631Z,18.80
2018-03-16T17:42:52.928Z,19.10
2018-03-16T17:45:20.417Z,19.77
2018-03-16T17:47:47.904Z,19.33
2018-03-16T17:50:15.372Z,19.27
2018-03-16T17:52:43.658Z,20.48
2018-03-16T17:55:12.117Z,23.73
2018-03-16T17:57:39.741Z,18.03
2018-03-16T18:00:07.237Z,25.08
2018-03-16T18:02:34.684Z,23.10
2018-03-16T18:05:02.676Z,18.53
2018-03-16T18:07:30.888Z,18.67
2018-03-16T18:09:59.096Z,18.63
2018-03-16T18:12:26.604Z,19.47
2018-03-16T18:14:54.067Z,22.17
2018-03-16T18:17:21.844Z,23.37
2018-03-16T18:19:50.058Z,21.20
2018-03-16T18:22:18.299Z,110.37
2018-03-16T18:24:46.191Z,29.40
2018-03-16T18:27:13.745Z,27.87
2018-03-16T18:29:41.220Z,25.07
2018-03-16T18:32:08.696Z,21.37
2018-03-16T18:34:37.653Z,21.83
2018-03-16T18:37:06.142Z,23.47
2018-03-16T18:39:34.142Z,21.35
2018-03-16T18:42:01.643Z,23.25
2018-03-16T18:44:29.132Z,23.70
2018-03-16T18:46:57.343Z,23.43
2018-03-16T18:49:25.066Z,22.03
2018-03-16T18:51:53.311Z,21.90
2018-03-16T18:54:20.793Z,24.20
2018-03-16T18:56:48.472Z,21.50
2018-03-16T18:59:15.957Z,22.47
2018-03-16T19:01:43.739Z,20.43
2018-03-16T19:04:12.527Z,20.30
2018-03-16T19:06:39.996Z,21.10
2018-03-16T19:09:07.486Z,20.00
2018-03-16T19:11:35.338Z,23.53
2018-03-16T19:14:02.870Z,20.00
2018-03-16T19:16:30.908Z,18.33
2018-03-16T19:18:58.408Z,24.33
2018-03-16T19:21:26.006Z,18.20
2018-03-16T19:23:54.254Z,18.33
2018-03-16T19:26:21.711Z,21.50
2018-03-16T19:28:49.238Z,19.12
2018-03-16T19:31:17.089Z,20.57
2018-03-16T19:33:44.553Z,21.67
2018-03-16T19:36:12.366Z,17.35
2018-03-16T19:38:39.868Z,20.40
2018-03-16T19:41:07.302Z,19.70
2018-03-16T19:43:35.580Z,24.67
2018-03-16T19:46:04.251Z,16.60
2018-03-16T19:48:31.731Z,20.62
2018-03-16T19:50:59.958Z,19.87
2018-03-16T19:53:27.473Z,17.77
2018-03-16T19:55:55.035Z,19.65
2018-03-16T19:58:22.489Z,20.93
2018-03-16T20:00:50.197Z,18.12
2018-03-16T20:03:17.648Z,20.27
2018-03-16T20:05:45.545Z,16.30
2018-03-16T20:08:13.766Z,18.57
2018-03-16T20:10:41.501Z,17.77
2018-03-16T20:13:09.734Z,17.37
2018-03-16T20:15:37.578Z,17.60
2018-03-16T20:18:05.548Z,17.00
2018-03-16T20:20:33.022Z,18.83
2018-03-16T20:23:00.487Z,17.53
2018-03-16T20:25:27.997Z,13.50
2018-03-16T20:27:55.460Z,15.73
2018-03-16T20:30:22.926Z,15.93
2018-03-16T20:32:50.641Z,14.80
2018-03-16T20:35:19.266Z,16.67
2018-03-16T20:37:46.740Z,13.40
2018-03-16T20:40:14.221Z,15.65
2018-03-16T20:42:41.711Z,13.85
2018-03-16T20:45:09.202Z,19.30
2018-03-16T20:47:36.667Z,17.00
2018-03-16T20:50:04.200Z,13.32
2018-03-16T20:52:31.645Z,16.50
2018-03-16T20:55:00.355Z,122.40
2018-03-16T20:57:27.836Z,18.17
2018-03-16T20:59:55.287Z,15.32
2018-03-16T21:02:22.761Z,21.00
2018-03-16T21:04:50.665Z,12.93
2018-03-16T21:07:18.248Z,12.95
2018-03-16T21:09:47.198Z,14.30
2018-03-16T21:12:17.634Z,13.00
2018-03-16T21:14:45.859Z,10.02
2018-03-16T21:17:14.016Z,11.27
2018-03-16T21:19:41.494Z,12.50
2018-03-16T21:22:08.983Z,11.95
2018-03-16T21:24:36.444Z,11.90
2018-03-16T21:27:04.698Z,11.13
2018-03-16T21:29:32.159Z,11.53
2018-03-16T21:32:01.185Z,12.55
2018-03-16T21:34:29.934Z,11.60
2018-03-16T21:36:57.482Z,10.30
2018-03-16T21:39:25.034Z,11.53
2018-03-16T21:41:52.437Z,9.75
2018-03-16T21:44:20.130Z,13.02
2018-03-16T21:46:47.704Z,10.73
2018-03-16T21:49:15.148Z,10.10
2018-03-16T21:51:42.671Z,10.80
2018-03-16T21:54:10.913Z,11.20
2018-03-16T21:56:38.402Z,9.35
2018-03-16T21:59:06.632Z,11.15
2018-03-16T22:01:34.621Z,11.18
2018-03-16T22:04:02.784Z,8.93
2018-03-16T22:06:30.257Z,13.85
2018-03-16T22:08:58.248Z,13.40
2018-03-16T22:11:26.998Z,12.13
2018-03-16T22:13:54.488Z,12.55
2018-03-16T22:16:22.932Z,11.10
2018-03-16T22:18:50.819Z,15.60
2018-03-16T22:21:18.286Z,11.25
2018-03-16T22:23:46.588Z,11.90
2018-03-16T22:26:14.054Z,11.00
2018-03-16T22:28:41.521Z,13.55
2018-03-16T22:31:08.999Z,11.38
2018-03-16T22:33:36.457Z,191.10
2018-03-16T22:36:04.229Z,61.25
2018-03-16T22:38:31.690Z,13.62
2018-03-16T22:40:59.147Z,12.65
2018-03-16T22:43:26.666Z,13.07
2018-03-16T22:45:54.361Z,14.55
2018-03-16T22:48:21.822Z,9.30
2018-03-16T22:50:49.293Z,12.45
2018-03-16T22:53:17.525Z,11.57
2018-03-16T22:55:45.003Z,10.70
2018-03-16T22:58:13.088Z,12.18
2018-03-16T23:00:40.566Z,13.83
2018-03-16T23:03:09.302Z,8.65
2018-03-16T23:05:37.213Z,10.00
2018-03-16T23:08:05.440Z,9.65
2018-03-16T23:10:34.042Z,11.07
2018-03-16T23:13:01.526Z,6.18
2018-03-16T23:15:29.744Z,9.80
2018-03-16T23:17:57.231Z,9.07
2018-03-16T23:20:25.165Z,11.88
2018-03-16T23:22:52.769Z,10.05
2018-03-16T23:25:20.224Z,11.65
2018-03-16T23:27:47.843Z,14.93
2018-03-16T23:30:15.284Z,9.70
2018-03-16T23:32:42.886Z,9.10
2018-03-16T23:35:10.758Z,11.05
2018-03-16T23:37:38.284Z,9.15
2018-03-16T23:40:05.749Z,11.52
2018-03-16T23:42:33.243Z,13.50
2018-03-16T23:45:00.750Z,10.77
2018-03-16T23:47:29.112Z,10.68
2018-03-16T23:49:56.569Z,11.50
2018-03-16T23:52:24.590Z,10.10
2018-03-16T23:54:52.049Z,10.25
2018-03-16T23:57:19.521Z,13.90
2018-03-16T23:59:47.738Z,15.25
